createdAt,value
2023-05-14T00:06:45.396Z,78
2023-05-14T00:16:54.023Z,78
2023-05-14T00:27:02.669Z,79
2023-05-14T00:37:11.186Z,78
2023-05-14T00:47:19.820Z,78
2023-05-14T00:57:28.942Z,78
2023-05-14T01:07:37.542Z,78
2023-05-14T01:17:46.157Z,78
2023-05-14T01:27:54.663Z,79
2023-05-14T01:38:03.199Z,78
2023-05-14T01:48:11.752Z,78
2023-05-14T01:58:20.385Z,78
2023-05-14T02:08:28.918Z,79
2023-05-14T02:18:37.562Z,79
2023-05-14T02:28:46.220Z,79
2023-05-14T02:38:54.722Z,79
2023-05-14T02:49:03.326Z,79
2023-05-14T02:59:11.861Z,78
2023-05-14T03:09:20.420Z,78
2023-05-14T03:19:29.044Z,78
2023-05-14T03:29:37.584Z,78
2023-05-14T03:39:46.097Z,77
2023-05-14T03:49:54.632Z,77
2023-05-14T04:00:03.395Z,77
2023-05-14T04:10:11.932Z,77
2023-05-14T04:20:20.580Z,77
2023-05-14T04:30:29.120Z,77
2023-05-14T04:40:37.669Z,78
2023-05-14T04:50:46.262Z,78
2023-05-14T05:00:54.764Z,78
2023-05-14T05:11:03.324Z,77
2023-05-14T05:21:11.977Z,76
2023-05-14T05:31:20.226Z,76
2023-05-14T05:41:28.846Z,75
2023-05-14T05:51:37.376Z,73
2023-05-14T06:01:46.034Z,73
2023-05-14T06:11:54.497Z,71
2023-05-14T06:22:03.093Z,71
2023-05-14T06:32:11.778Z,68
2023-05-14T06:42:20.446Z,66
2023-05-14T06:52:28.984Z,63
2023-05-14T07:02:37.531Z,58
2023-05-14T07:12:46.186Z,55
2023-05-14T07:22:54.602Z,52
2023-05-14T07:33:03.173Z,50
2023-05-14T07:43:11.662Z,49
2023-05-14T07:53:20.130Z,47
2023-05-14T08:03:28.894Z,45
2023-05-14T08:13:37.398Z,45
2023-05-14T08:23:46.064Z,44
2023-05-14T08:33:55.510Z,44
2023-05-14T08:44:04.049Z,42
2023-05-14T08:54:24.650Z,41
2023-05-14T09:04:13.367Z,40
2023-05-14T09:14:21.940Z,39
2023-05-14T09:24:30.512Z,41
2023-05-14T09:34:39.097Z,38
2023-05-14T09:44:47.563Z,35
2023-05-14T09:54:56.070Z,36
2023-05-14T10:05:04.692Z,36
2023-05-14T10:15:13.384Z,35
2023-05-14T10:25:21.977Z,34
2023-05-14T10:35:30.480Z,34
2023-05-14T10:45:39.043Z,34
2023-05-14T10:55:47.658Z,43
2023-05-14T11:05:56.372Z,43
2023-05-14T11:16:15.465Z,41
2023-05-14T11:26:12.008Z,42
2023-05-14T11:36:20.163Z,43
2023-05-14T11:46:28.709Z,43
2023-05-14T11:56:37.229Z,43
2023-05-14T12:06:45.754Z,43
2023-05-14T12:16:54.231Z,44
2023-05-14T12:27:02.779Z,43
2023-05-14T12:37:11.353Z,43
2023-05-14T12:47:20.054Z,43
2023-05-14T12:57:28.536Z,42
2023-05-14T13:07:37.107Z,43
2023-05-14T13:17:45.826Z,44
2023-05-14T13:27:54.475Z,50
2023-05-14T13:38:04.273Z,52
2023-05-14T13:48:12.859Z,50
2023-05-14T13:58:21.393Z,63
2023-05-14T14:08:30.021Z,66
2023-05-14T14:18:38.602Z,64
2023-05-14T14:28:47.285Z,57
2023-05-14T14:38:56.404Z,54
2023-05-14T14:49:06.186Z,54
2023-05-14T14:59:14.784Z,54
2023-05-14T15:09:23.435Z,50
2023-05-14T15:19:32.018Z,52
2023-05-14T15:29:40.781Z,53
2023-05-14T15:39:49.984Z,53
2023-05-14T15:49:58.865Z,50
2023-05-14T16:00:07.483Z,51
2023-05-14T16:10:16.078Z,52
2023-05-14T16:20:25.020Z,51
2023-05-14T16:30:34.505Z,55
2023-05-14T16:40:43.155Z,61
2023-05-14T16:50:51.872Z,64
2023-05-14T17:00:52.268Z,64
2023-05-14T17:11:00.436Z,62
2023-05-14T17:21:00.818Z,61
2023-05-14T17:31:09.543Z,60
2023-05-14T17:41:18.376Z,60
2023-05-14T17:51:27.003Z,61
2023-05-14T18:01:35.687Z,61
2023-05-14T18:11:45.346Z,60
2023-05-14T18:21:53.630Z,60
2023-05-14T18:32:03.147Z,61
2023-05-14T18:42:11.786Z,60
2023-05-14T18:52:21.688Z,62
2023-05-14T19:02:30.486Z,64
2023-05-14T19:12:37.655Z,65
2023-05-14T19:22:37.617Z,67
2023-05-14T19:32:46.314Z,65
2023-05-14T19:42:54.880Z,64
2023-05-14T19:53:04.509Z,63
2023-05-14T20:03:13.473Z,65
2023-05-14T20:13:23.870Z,66
2023-05-14T20:23:30.837Z,67
2023-05-14T20:33:45.235Z,68
2023-05-14T20:43:52.872Z,69
2023-05-14T20:53:51.483Z,68
2023-05-14T21:04:01.269Z,68
2023-05-14T21:14:10.002Z,69
2023-05-14T21:24:18.824Z,69
2023-05-14T21:34:27.935Z,69
2023-05-14T21:44:37.694Z,69
2023-05-14T21:54:46.300Z,69
2023-05-14T22:04:54.828Z,68
2023-05-14T22:15:03.966Z,68
2023-05-14T22:25:12.675Z,69
2023-05-14T22:35:21.332Z,70
2023-05-14T22:45:29.380Z,72
2023-05-14T22:55:38.033Z,72
2023-05-14T23:05:46.837Z,72
2023-05-14T23:15:55.426Z,70
2023-05-14T23:26:04.097Z,70
2023-05-14T23:36:12.932Z,71
2023-05-14T23:46:21.701Z,71
2023-05-14T23:56:30.180Z,72
